createdAt,value
2018-03-21T00:01:21.693Z,11.60
2018-03-21T00:03:51.537Z,11.18
2018-03-21T00:06:21.113Z,11.98
2018-03-21T00:08:51.011Z,10.80
2018-03-21T00:11:20.814Z,12.10
2018-03-21T00:13:50.633Z,10.30
2018-03-21T00:16:20.458Z,11.82
2018-03-21T00:18:50.327Z,10.70
2018-03-21T00:21:20.417Z,11.45
2018-03-21T00:23:50.533Z,10.98
2018-03-21T00:26:20.341Z,10.80
2018-03-21T00:28:50.178Z,12.90
2018-03-21T00:31:19.992Z,11.32
2018-03-21T00:33:49.818Z,10.70
2018-03-21T00:36:19.643Z,11.77
2018-03-21T00:38:49.463Z,11.25
2018-03-21T00:41:19.278Z,11.30
2018-03-21T00:43:49.096Z,10.60
2018-03-21T00:46:18.944Z,11.68
2018-03-21T00:48:48.748Z,11.57
2018-03-21T00:51:18.583Z,10.88
2018-03-21T00:53:48.383Z,11.07
2018-03-21T00:56:18.392Z,11.60
2018-03-21T00:58:48.198Z,10.20
2018-03-21T01:01:18.008Z,11.18
2018-03-21T01:03:47.816Z,10.90
2018-03-21T01:06:17.628Z,10.75
2018-03-21T01:08:47.457Z,10.23
2018-03-21T01:11:17.294Z,11.55
2018-03-21T01:13:46.857Z,10.50
2018-03-21T01:16:16.687Z,11.68
2018-03-21T01:18:50.068Z,10.32
2018-03-21T01:21:19.887Z,10.60
2018-03-21T01:23:49.706Z,10.15
2018-03-21T01:26:19.530Z,10.23
2018-03-21T01:28:49.342Z,11.00
2018-03-21T01:31:19.160Z,9.30
2018-03-21T01:33:48.949Z,9.23
2018-03-21T01:36:18.577Z,10.90
2018-03-21T01:38:48.179Z,12.75
2018-03-21T01:41:18.011Z,11.15
2018-03-21T01:43:47.800Z,10.35
2018-03-21T01:46:17.425Z,10.45
2018-03-21T01:48:47.277Z,10.65
2018-03-21T01:51:17.216Z,11.00
2018-03-21T01:53:46.817Z,10.60
2018-03-21T01:56:16.637Z,10.27
2018-03-21T01:58:46.464Z,10.20
2018-03-21T02:01:16.309Z,10.70
2018-03-21T02:03:46.151Z,10.52
2018-03-21T02:06:15.962Z,10.55
2018-03-21T02:08:45.536Z,10.80
2018-03-21T02:11:15.342Z,10.27
2018-03-21T02:13:45.140Z,10.88
2018-03-21T02:16:14.992Z,9.88
2018-03-21T02:18:44.807Z,10.88
2018-03-21T02:21:14.634Z,10.40
2018-03-21T02:23:44.464Z,10.32
2018-03-21T02:26:14.282Z,10.27
2018-03-21T02:28:44.107Z,10.63
2018-03-21T02:31:13.921Z,10.02
2018-03-21T02:33:43.477Z,9.68
2018-03-21T02:36:13.308Z,10.88
2018-03-21T02:38:43.118Z,9.93
2018-03-21T02:41:12.942Z,9.90
2018-03-21T02:43:42.786Z,10.27
2018-03-21T02:46:12.592Z,10.98
2018-03-21T02:48:42.416Z,10.75
2018-03-21T02:51:12.061Z,10.75
2018-03-21T02:53:41.872Z,10.52
2018-03-21T02:56:11.684Z,10.52
2018-03-21T02:58:41.556Z,9.77
2018-03-21T03:01:11.569Z,11.10
2018-03-21T03:03:41.412Z,10.32
2018-03-21T03:06:11.301Z,10.50
2018-03-21T03:08:41.384Z,9.95
2018-03-21T03:11:11.221Z,10.25
2018-03-21T03:13:41.081Z,10.45
2018-03-21T03:16:11.508Z,10.55
2018-03-21T03:18:41.344Z,10.55
2018-03-21T03:21:12.001Z,10.88
2018-03-21T03:23:41.894Z,10.27
2018-03-21T03:26:11.756Z,11.10
2018-03-21T03:28:41.627Z,9.77
2018-03-21T03:31:11.512Z,11.70
2018-03-21T03:33:41.363Z,10.38
2018-03-21T03:36:11.212Z,10.20
2018-03-21T03:38:41.046Z,10.30
2018-03-21T03:41:10.877Z,10.25
2018-03-21T03:43:40.513Z,10.75
2018-03-21T03:46:10.329Z,10.40
2018-03-21T03:48:40.309Z,10.65
2018-03-21T03:51:10.177Z,10.75
2018-03-21T03:53:39.765Z,10.35
2018-03-21T03:56:09.580Z,11.85
2018-03-21T03:58:39.451Z,11.95
2018-03-21T04:01:09.268Z,10.80
2018-03-21T04:03:39.241Z,10.80
2018-03-21T04:06:09.217Z,9.60
2018-03-21T04:08:39.047Z,9.48
2018-03-21T04:11:08.852Z,10.90
2018-03-21T04:13:38.440Z,10.30
2018-03-21T04:16:08.287Z,10.90
2018-03-21T04:18:37.840Z,9.27
2018-03-21T04:21:07.691Z,9.40
2018-03-21T04:23:37.500Z,9.73
2018-03-21T04:26:08.182Z,11.23
2018-03-21T04:28:38.059Z,9.70
2018-03-21T04:31:07.856Z,10.07
2018-03-21T04:33:37.655Z,9.95
2018-03-21T04:36:08.100Z,8.45
2018-03-21T04:38:37.906Z,9.30
2018-03-21T04:41:07.801Z,9.55
2018-03-21T04:43:37.633Z,9.88
2018-03-21T04:46:07.285Z,9.60
2018-03-21T04:48:36.898Z,8.90
2018-03-21T04:51:06.517Z,9.40
2018-03-21T04:53:36.376Z,10.38
2018-03-21T04:56:06.201Z,10.43
2018-03-21T04:58:35.857Z,9.65
2018-03-21T05:01:05.664Z,11.80
2018-03-21T05:03:35.496Z,10.00
2018-03-21T05:06:05.244Z,10.70
2018-03-21T05:08:35.070Z,9.43
2018-03-21T05:11:04.923Z,9.18
2018-03-21T05:13:35.695Z,9.68
2018-03-21T05:16:05.502Z,10.63
2018-03-21T05:18:35.656Z,10.88
2018-03-21T05:21:05.229Z,11.12
2018-03-21T05:23:34.796Z,11.07
2018-03-21T05:26:04.639Z,11.60
2018-03-21T05:28:34.445Z,11.23
2018-03-21T05:31:04.287Z,9.90
2018-03-21T05:33:34.357Z,11.57
2018-03-21T05:36:04.171Z,11.07
2018-03-21T05:38:34.165Z,11.90
2018-03-21T05:41:03.998Z,11.82
2018-03-21T05:43:33.819Z,11.80
2018-03-21T05:46:03.669Z,13.00
2018-03-21T05:48:33.557Z,13.20
2018-03-21T05:51:04.082Z,13.23
2018-03-21T05:53:34.123Z,11.45
2018-03-21T05:56:03.964Z,12.52
2018-03-21T05:58:33.803Z,13.50
2018-03-21T06:01:03.675Z,12.88
2018-03-21T06:03:33.556Z,12.35
2018-03-21T06:06:03.245Z,13.98
2018-03-21T06:08:33.210Z,13.20
2018-03-21T06:11:03.088Z,12.82
2018-03-21T06:13:34.401Z,13.93
2018-03-21T06:16:05.261Z,13.00
2018-03-21T06:18:35.184Z,14.18
2018-03-21T06:21:05.041Z,12.63
2018-03-21T06:23:34.868Z,12.60
2018-03-21T06:26:04.690Z,13.73
2018-03-21T06:28:34.540Z,14.35
2018-03-21T06:31:04.397Z,14.60
2018-03-21T06:33:34.305Z,14.15
2018-03-21T06:36:08.271Z,15.55
2018-03-21T06:38:37.893Z,15.65
2018-03-21T06:41:08.507Z,15.88
2018-03-21T06:43:38.337Z,15.38
2018-03-21T06:46:08.158Z,15.57
2018-03-21T06:48:38.029Z,15.10
2018-03-21T06:51:07.867Z,17.98
2018-03-21T06:53:37.789Z,16.90
2018-03-21T06:56:07.606Z,14.93
2018-03-21T06:58:37.413Z,14.98
2018-03-21T07:01:07.307Z,15.90
2018-03-21T07:03:37.342Z,14.95
2018-03-21T07:06:07.191Z,17.10
2018-03-21T07:08:37.044Z,15.98
2018-03-21T07:11:06.864Z,16.30
2018-03-21T07:13:47.945Z,18.08
2018-03-21T07:16:28.826Z,17.70
2018-03-21T07:18:58.370Z,18.87
2018-03-21T07:21:28.177Z,16.42
2018-03-21T07:23:58.103Z,18.15
2018-03-21T07:26:28.099Z,18.00
2018-03-21T07:28:57.719Z,17.58
2018-03-21T07:31:27.448Z,17.33
2018-03-21T07:33:57.351Z,16.20
2018-03-21T07:36:27.169Z,17.73
2018-03-21T07:38:57.004Z,17.55
2018-03-21T07:41:26.807Z,17.45
2018-03-21T07:43:56.664Z,17.77
2018-03-21T07:46:26.445Z,18.08
2018-03-21T07:48:56.270Z,18.83
2018-03-21T07:51:26.210Z,19.60
2018-03-21T07:53:56.057Z,18.67
2018-03-21T07:56:25.847Z,18.67
2018-03-21T07:58:56.320Z,18.65
2018-03-21T08:01:30.253Z,17.75
2018-03-21T08:04:00.070Z,18.30
2018-03-21T08:06:29.939Z,17.75
2018-03-21T08:09:00.215Z,20.02
2018-03-21T08:11:30.017Z,18.85
2018-03-21T08:13:59.850Z,20.20
2018-03-21T08:16:29.691Z,17.80
2018-03-21T08:18:59.502Z,16.10
2018-03-21T08:21:29.328Z,18.23
2018-03-21T08:23:59.140Z,18.58
2018-03-21T08:26:28.978Z,20.67
2018-03-21T08:28:59.374Z,21.52
2018-03-21T08:31:29.394Z,18.48
2018-03-21T08:33:59.254Z,20.65
2018-03-21T08:36:29.084Z,19.30
2018-03-21T08:38:58.953Z,18.23
2018-03-21T08:41:28.779Z,19.30
2018-03-21T08:43:58.631Z,19.20
2018-03-21T08:46:28.482Z,18.15
2018-03-21T08:48:58.290Z,21.08
2018-03-21T08:51:28.114Z,18.98
2018-03-21T08:53:57.925Z,18.33
2018-03-21T08:56:27.505Z,17.37
2018-03-21T08:58:57.818Z,18.90
2018-03-21T09:01:27.671Z,17.92
2018-03-21T09:03:57.652Z,18.60
2018-03-21T09:06:27.480Z,19.87
2018-03-21T09:08:57.389Z,20.42
2018-03-21T09:11:27.195Z,20.62
2018-03-21T09:13:57.050Z,18.52
2018-03-21T09:16:26.678Z,19.77
2018-03-21T09:18:56.501Z,20.00
2018-03-21T09:21:26.288Z,19.37
2018-03-21T09:23:56.091Z,18.40
2018-03-21T09:26:25.951Z,19.75
2018-03-21T09:28:55.770Z,18.67
2018-03-21T09:31:25.617Z,19.25
2018-03-21T09:33:55.429Z,19.35
2018-03-21T09:36:25.244Z,18.55
2018-03-21T09:38:55.068Z,17.40
2018-03-21T09:41:24.872Z,19.45
2018-03-21T09:43:54.775Z,16.15
2018-03-21T09:46:24.579Z,19.50
2018-03-21T09:48:54.386Z,17.35
2018-03-21T09:51:24.200Z,17.95
2018-03-21T09:53:54.018Z,18.35
2018-03-21T09:56:24.605Z,17.90
2018-03-21T09:58:54.418Z,19.37
2018-03-21T10:01:24.215Z,18.83
2018-03-21T10:03:54.006Z,19.02
2018-03-21T10:06:23.831Z,20.12
2018-03-21T10:08:53.644Z,18.37
2018-03-21T10:11:23.703Z,17.85
2018-03-21T10:13:53.512Z,17.95
2018-03-21T10:16:23.350Z,18.08
2018-03-21T10:18:52.913Z,17.62
2018-03-21T10:21:22.765Z,15.73
2018-03-21T10:23:52.557Z,18.90
2018-03-21T10:26:22.379Z,18.42
2018-03-21T10:28:52.245Z,17.87
2018-03-21T10:31:22.208Z,17.33
2018-03-21T10:33:52.245Z,18.37
2018-03-21T10:36:22.039Z,18.10
2018-03-21T10:38:51.644Z,17.75
2018-03-21T10:41:21.455Z,16.90
2018-03-21T10:43:50.832Z,16.58
2018-03-21T10:46:20.629Z,15.77
2018-03-21T10:48:51.046Z,15.98
2018-03-21T10:51:21.045Z,15.65
2018-03-21T10:53:50.863Z,17.30
2018-03-21T10:56:20.687Z,16.12
2018-03-21T10:58:50.503Z,16.58
2018-03-21T11:01:25.638Z,14.93
2018-03-21T11:03:56.277Z,14.20
2018-03-21T11:06:26.599Z,11.70
2018-03-21T11:08:56.528Z,14.77
2018-03-21T11:11:26.607Z,14.43
2018-03-21T11:13:56.487Z,14.13
2018-03-21T11:16:26.314Z,14.05
2018-03-21T11:18:56.167Z,13.85
2018-03-21T11:21:26.083Z,14.25
2018-03-21T11:23:55.917Z,13.68
2018-03-21T11:26:25.760Z,12.55
2018-03-21T11:28:55.569Z,13.52
2018-03-21T11:31:25.479Z,12.80
2018-03-21T11:33:55.339Z,12.90
2018-03-21T11:36:29.416Z,13.70
2018-03-21T11:38:59.235Z,12.30
2018-03-21T11:41:29.086Z,13.43
2018-03-21T11:43:58.931Z,12.90
2018-03-21T11:46:28.810Z,13.75
2018-03-21T11:48:58.665Z,11.90
2018-03-21T11:51:28.520Z,11.88
2018-03-21T11:53:58.318Z,10.75
2018-03-21T11:56:28.211Z,11.70
2018-03-21T11:58:58.482Z,11.40
2018-03-21T12:01:28.371Z,12.27
2018-03-21T12:03:58.227Z,11.90
2018-03-21T12:06:28.028Z,11.25
2018-03-21T12:08:57.808Z,9.73
2018-03-21T12:11:27.638Z,9.15
2018-03-21T12:13:58.972Z,8.10
2018-03-21T12:16:28.765Z,8.23
2018-03-21T12:18:58.583Z,9.32
2018-03-21T12:21:28.411Z,7.93
2018-03-21T12:24:01.863Z,6.67
2018-03-21T12:26:31.390Z,8.03
2018-03-21T12:29:00.911Z,8.10
2018-03-21T12:31:30.477Z,5.77
2018-03-21T12:33:59.982Z,5.03
2018-03-21T12:36:29.548Z,4.90
2018-03-21T12:38:59.073Z,5.00
2018-03-21T12:41:28.890Z,5.30
2018-03-21T12:43:58.402Z,5.37
2018-03-21T12:46:27.921Z,5.80
2018-03-21T12:48:57.659Z,4.90
2018-03-21T12:51:27.765Z,5.20
2018-03-21T12:53:57.595Z,4.87
2018-03-21T12:56:27.115Z,5.10
2018-03-21T12:58:56.939Z,4.70
2018-03-21T13:01:26.547Z,5.37
2018-03-21T13:03:56.046Z,5.67
2018-03-21T13:06:25.981Z,4.70
2018-03-21T13:08:55.486Z,4.93
2018-03-21T13:11:25.003Z,5.13
2018-03-21T13:13:54.560Z,5.00
2018-03-21T13:16:24.075Z,5.30
2018-03-21T13:18:53.591Z,4.80
2018-03-21T13:21:22.983Z,4.87
2018-03-21T13:23:52.487Z,4.60
2018-03-21T13:26:22.007Z,4.80
2018-03-21T13:28:51.516Z,4.13
2018-03-21T13:31:22.059Z,4.37
2018-03-21T13:33:51.575Z,4.50
2018-03-21T13:36:21.113Z,5.13
2018-03-21T13:38:50.356Z,3.90
2018-03-21T13:41:19.751Z,4.43
2018-03-21T13:43:49.356Z,4.30
2018-03-21T13:46:18.921Z,4.73
2018-03-21T13:48:48.464Z,4.27
2018-03-21T13:51:17.912Z,4.17
2018-03-21T13:53:47.432Z,4.40
2018-03-21T13:56:17.071Z,4.33
2018-03-21T13:58:46.635Z,3.83
2018-03-21T14:01:15.862Z,4.60
2018-03-21T14:03:45.496Z,4.10
2018-03-21T14:06:15.054Z,4.07
2018-03-21T14:08:44.648Z,3.40
2018-03-21T14:11:14.159Z,4.20
2018-03-21T14:13:43.718Z,4.00
2018-03-21T14:16:13.239Z,4.20
2018-03-21T14:18:42.487Z,4.30
2018-03-21T14:21:12.016Z,4.57
2018-03-21T14:23:41.576Z,4.00
2018-03-21T14:26:11.351Z,3.80
2018-03-21T14:28:41.052Z,5.00
2018-03-21T14:31:11.121Z,3.73
2018-03-21T14:33:40.719Z,4.13
2018-03-21T14:36:10.104Z,4.40
2018-03-21T14:38:39.757Z,4.10
2018-03-21T14:41:09.273Z,4.40
2018-03-21T14:43:38.870Z,4.27
2018-03-21T14:46:08.415Z,3.40
2018-03-21T14:48:38.251Z,2.83
2018-03-21T14:51:08.132Z,3.08
2018-03-21T14:53:39.026Z,2.65
2018-03-21T14:56:08.861Z,2.53
2018-03-21T14:58:38.650Z,2.92
2018-03-21T15:01:08.504Z,2.80
2018-03-21T15:03:38.524Z,3.08
2018-03-21T15:06:09.326Z,3.92
2018-03-21T15:08:39.171Z,2.72
2018-03-21T15:11:08.986Z,3.30
2018-03-21T15:13:38.809Z,3.40
2018-03-21T15:16:08.931Z,2.70
2018-03-21T15:18:38.746Z,2.78
2018-03-21T15:21:08.578Z,2.60
2018-03-21T15:23:38.795Z,3.67
2018-03-21T15:26:08.599Z,3.30
2018-03-21T15:28:38.384Z,3.10
2018-03-21T15:31:08.793Z,2.80
2018-03-21T15:33:38.766Z,3.45
2018-03-21T15:36:08.629Z,3.45
2018-03-21T15:38:38.261Z,2.75
2018-03-21T15:41:08.099Z,3.03
2018-03-21T15:43:38.050Z,3.37
2018-03-21T15:46:08.782Z,4.03
2018-03-21T15:48:38.373Z,4.10
2018-03-21T15:51:08.275Z,3.30
2018-03-21T15:53:38.219Z,3.08
2018-03-21T15:56:08.023Z,3.30
2018-03-21T15:58:37.859Z,2.80
2018-03-21T16:01:07.668Z,2.62
2018-03-21T16:03:37.396Z,2.95
2018-03-21T16:06:07.224Z,3.00
2018-03-21T16:08:37.016Z,3.00
2018-03-21T16:11:06.954Z,2.85
2018-03-21T16:13:36.756Z,3.10
2018-03-21T16:16:06.549Z,2.60
2018-03-21T16:18:36.439Z,2.70
2018-03-21T16:21:06.269Z,2.60
2018-03-21T16:23:36.265Z,2.65
2018-03-21T16:26:06.077Z,2.95
2018-03-21T16:28:35.912Z,3.15
2018-03-21T16:31:05.733Z,2.90
2018-03-21T16:33:35.574Z,3.90
2018-03-21T16:36:05.354Z,3.03
2018-03-21T16:38:35.847Z,3.55
2018-03-21T16:41:05.347Z,3.37
2018-03-21T16:43:35.163Z,3.92
2018-03-21T16:46:04.972Z,3.70
2018-03-21T16:48:34.826Z,3.47
2018-03-21T16:51:04.310Z,2.83
2018-03-21T16:53:34.088Z,3.50
2018-03-21T16:56:03.899Z,3.78
2018-03-21T16:58:33.743Z,3.53
2018-03-21T17:01:03.548Z,5.05
2018-03-21T17:03:33.249Z,5.35
2018-03-21T17:06:03.061Z,5.05
2018-03-21T17:08:32.913Z,5.07
2018-03-21T17:11:02.762Z,5.32
2018-03-21T17:13:33.264Z,4.95
2018-03-21T17:16:03.096Z,5.07
2018-03-21T17:18:32.897Z,3.72
2018-03-21T17:21:02.718Z,4.10
2018-03-21T17:23:32.596Z,4.70
2018-03-21T17:26:02.409Z,3.83
2018-03-21T17:28:36.270Z,5.18
2018-03-21T17:31:06.071Z,5.80
2018-03-21T17:33:35.873Z,4.87
2018-03-21T17:36:06.800Z,4.40
2018-03-21T17:38:36.623Z,3.92
2018-03-21T17:41:06.330Z,4.32
2018-03-21T17:43:36.366Z,4.47
2018-03-21T17:46:06.164Z,4.43
2018-03-21T17:48:36.258Z,6.12
2018-03-21T17:51:06.081Z,5.05
2018-03-21T17:53:35.873Z,4.15
2018-03-21T17:56:05.474Z,4.47
2018-03-21T17:58:35.296Z,4.60
2018-03-21T18:01:05.074Z,4.93
2018-03-21T18:03:34.873Z,5.18
2018-03-21T18:06:04.678Z,5.22
2018-03-21T18:08:34.497Z,5.55
2018-03-21T18:11:04.356Z,6.57
2018-03-21T18:13:34.127Z,5.87
2018-03-21T18:16:03.905Z,5.03
2018-03-21T18:18:33.715Z,5.68
2018-03-21T18:21:03.524Z,4.90
2018-03-21T18:23:33.378Z,5.85
2018-03-21T18:26:03.279Z,5.80
2018-03-21T18:28:33.090Z,6.15
2018-03-21T18:31:02.857Z,5.75
2018-03-21T18:33:32.671Z,5.28
2018-03-21T18:36:02.460Z,4.95
2018-03-21T18:38:32.086Z,6.97
2018-03-21T18:41:01.906Z,8.05
2018-03-21T18:43:31.728Z,7.03
2018-03-21T18:46:01.591Z,5.55
2018-03-21T18:48:31.188Z,6.40
2018-03-21T18:51:01.033Z,5.78
2018-03-21T18:53:30.838Z,6.80
2018-03-21T18:56:00.737Z,7.43
2018-03-21T18:58:30.590Z,7.28
2018-03-21T19:01:00.479Z,7.12
2018-03-21T19:03:30.286Z,6.75
2018-03-21T19:06:00.100Z,6.53
2018-03-21T19:08:29.900Z,7.07
2018-03-21T19:10:59.684Z,5.95
2018-03-21T19:13:29.501Z,5.37
2018-03-21T19:15:59.311Z,5.70
2018-03-21T19:18:29.189Z,6.57
2018-03-21T19:20:59.027Z,6.85
2018-03-21T19:23:28.825Z,6.57
2018-03-21T19:25:58.669Z,6.00
2018-03-21T19:28:28.503Z,6.07
2018-03-21T19:30:58.360Z,6.55
2018-03-21T19:33:29.190Z,6.62
2018-03-21T19:35:59.047Z,6.60
2018-03-21T19:38:28.855Z,6.10
2018-03-21T19:40:58.661Z,6.28
2018-03-21T19:43:28.512Z,6.65
2018-03-21T19:45:59.344Z,6.78
2018-03-21T19:48:29.164Z,7.40
2018-03-21T19:50:59.029Z,7.65
2018-03-21T19:53:28.841Z,7.93
2018-03-21T19:55:58.647Z,6.53
2018-03-21T19:58:28.450Z,7.95
2018-03-21T20:00:58.269Z,8.13
2018-03-21T20:03:28.078Z,9.07
2018-03-21T20:05:57.883Z,8.20
2018-03-21T20:08:27.690Z,9.48
2018-03-21T20:10:57.518Z,7.30
2018-03-21T20:13:27.363Z,8.77
2018-03-21T20:15:57.198Z,9.23
2018-03-21T20:18:27.492Z,9.32
2018-03-21T20:20:57.513Z,9.75
2018-03-21T20:23:27.762Z,9.60
2018-03-21T20:25:57.652Z,8.75
2018-03-21T20:28:27.449Z,10.25
2018-03-21T20:30:57.259Z,9.48
2018-03-21T20:33:27.108Z,9.20
2018-03-21T20:35:56.916Z,8.63
2018-03-21T20:38:26.772Z,10.02
2018-03-21T20:40:57.905Z,10.45
2018-03-21T20:43:27.741Z,10.70
2018-03-21T20:45:57.612Z,10.40
2018-03-21T20:48:27.505Z,9.68
2018-03-21T20:50:57.425Z,10.32
2018-03-21T20:53:27.041Z,10.55
2018-03-21T20:55:56.853Z,10.50
2018-03-21T20:58:26.671Z,9.27
2018-03-21T21:00:56.478Z,9.48
2018-03-21T21:03:26.287Z,9.10
2018-03-21T21:05:56.126Z,9.40
2018-03-21T21:08:25.769Z,8.73
2018-03-21T21:11:02.518Z,8.23
2018-03-21T21:13:33.285Z,8.38
2018-03-21T21:16:03.280Z,8.70
2018-03-21T21:18:33.642Z,8.15
2018-03-21T21:21:04.195Z,7.20
2018-03-21T21:23:34.123Z,7.80
2018-03-21T21:26:04.067Z,10.20
2018-03-21T21:28:33.937Z,10.23
2018-03-21T21:31:04.653Z,10.45
2018-03-21T21:33:34.596Z,10.73
2018-03-21T21:36:04.441Z,10.95
2018-03-21T21:38:34.324Z,11.95
2018-03-21T21:41:04.395Z,11.23
2018-03-21T21:43:34.267Z,12.32
2018-03-21T21:46:04.092Z,11.18
2018-03-21T21:48:33.909Z,12.00
2018-03-21T21:51:03.760Z,11.88
2018-03-21T21:53:33.691Z,13.15
2018-03-21T21:56:03.592Z,12.15
2018-03-21T21:58:33.501Z,11.45
2018-03-21T22:01:04.037Z,12.37
2018-03-21T22:03:34.744Z,12.95
2018-03-21T22:06:06.168Z,11.57
2018-03-21T22:08:36.167Z,11.93
2018-03-21T22:11:06.711Z,11.95
2018-03-21T22:13:36.923Z,13.07
2018-03-21T22:16:07.583Z,13.38
2018-03-21T22:18:38.074Z,13.35
2018-03-21T22:21:08.846Z,13.50
2018-03-21T22:23:38.989Z,13.23
2018-03-21T22:26:10.144Z,14.13
2018-03-21T22:28:40.213Z,13.70
2018-03-21T22:31:10.230Z,13.70
2018-03-21T22:33:40.269Z,14.70
2018-03-21T22:36:10.154Z,16.67
2018-03-21T22:38:40.034Z,15.88
2018-03-21T22:41:09.944Z,14.02
2018-03-21T22:43:39.954Z,14.02
2018-03-21T22:46:09.823Z,14.52
2018-03-21T22:48:39.770Z,15.15
2018-03-21T22:51:09.729Z,15.23
2018-03-21T22:53:39.847Z,15.85
2018-03-21T22:56:09.788Z,15.35
2018-03-21T22:58:39.800Z,15.52
2018-03-21T23:01:09.868Z,15.30
2018-03-21T23:03:43.959Z,16.17
2018-03-21T23:06:14.348Z,15.20
2018-03-21T23:08:44.455Z,17.48
2018-03-21T23:11:14.499Z,18.00
2018-03-21T23:13:44.745Z,18.80
2018-03-21T23:16:14.883Z,18.83
2018-03-21T23:18:44.940Z,17.10
2018-03-21T23:21:15.357Z,18.20
2018-03-21T23:23:45.835Z,17.90
2018-03-21T23:26:15.929Z,17.33
2018-03-21T23:28:46.395Z,16.73
2018-03-21T23:31:16.628Z,18.48
2018-03-21T23:33:46.899Z,17.83
2018-03-21T23:36:16.889Z,17.25
2018-03-21T23:38:46.932Z,18.05
2018-03-21T23:41:18.169Z,19.95
2018-03-21T23:43:48.863Z,19.58
2018-03-21T23:46:19.110Z,20.42
2018-03-21T23:48:49.079Z,20.45
2018-03-21T23:51:19.139Z,18.15
2018-03-21T23:53:49.390Z,19.90
2018-03-21T23:56:19.271Z,18.87
2018-03-21T23:58:49.271Z,18.67
